sensor_id;sensor_type;location;lat;lon;timestamp;temperature;humidity
26954;DHT22;14508;50.924;11.600;2023-08-06T00:00:28;16.90;99.90
26954;DHT22;14508;50.924;11.600;2023-08-06T00:02:55;16.90;99.90
26954;DHT22;14508;50.924;11.600;2023-08-06T00:05:24;16.90;99.90
26954;DHT22;14508;50.924;11.600;2023-08-06T00:07:52;16.90;99.90
26954;DHT22;14508;50.924;11.600;2023-08-06T00:10:20;16.90;99.90
26954;DHT22;14508;50.924;11.600;2023-08-06T00:12:48;16.90;99.90
26954;DHT22;14508;50.924;11.600;2023-08-06T00:15:17;16.90;99.90
26954;DHT22;14508;50.924;11.600;2023-08-06T00:17:45;16.90;99.90
26954;DHT22;14508;50.924;11.600;2023-08-06T00:20:14;16.90;99.90
26954;DHT22;14508;50.924;11.600;2023-08-06T00:22:42;16.90;99.90
26954;DHT22;14508;50.924;11.600;2023-08-06T00:25:10;16.90;99.90
26954;DHT22;14508;50.924;11.600;2023-08-06T00:27:37;16.90;99.90
26954;DHT22;14508;50.924;11.600;2023-08-06T00:30:07;16.90;99.90
26954;DHT22;14508;50.924;11.600;2023-08-06T00:32:36;16.90;99.90
26954;DHT22;14508;50.924;11.600;2023-08-06T00:35:05;16.90;99.90
26954;DHT22;14508;50.924;11.600;2023-08-06T00:37:33;16.90;99.90
26954;DHT22;14508;50.924;11.600;2023-08-06T00:40:01;16.90;99.90
26954;DHT22;14508;50.924;11.600;2023-08-06T00:42:29;16.80;99.90
26954;DHT22;14508;50.924;11.600;2023-08-06T00:44:57;16.80;99.90
26954;DHT22;14508;50.924;11.600;2023-08-06T00:47:25;16.80;99.90
26954;DHT22;14508;50.924;11.600;2023-08-06T00:49:55;16.80;99.90
26954;DHT22;14508;50.924;11.600;2023-08-06T00:52:23;16.80;99.90
26954;DHT22;14508;50.924;11.600;2023-08-06T00:54:51;16.70;99.90
26954;DHT22;14508;50.924;11.600;2023-08-06T00:57:20;16.70;99.90
26954;DHT22;14508;50.924;11.600;2023-08-06T00:59:49;16.70;99.90
26954;DHT22;14508;50.924;11.600;2023-08-06T01:02:17;16.60;99.90
26954;DHT22;14508;50.924;11.600;2023-08-06T01:04:45;16.60;99.90
26954;DHT22;14508;50.924;11.600;2023-08-06T01:07:21;16.60;99.90
26954;DHT22;14508;50.924;11.600;2023-08-06T01:10:00;16.50;99.90
26954;DHT22;14508;50.924;11.600;2023-08-06T01:12:38;16.50;99.90
26954;DHT22;14508;50.924;11.600;2023-08-06T01:15:14;16.40;99.90
26954;DHT22;14508;50.924;11.600;2023-08-06T01:17:42;16.40;99.90
26954;DHT22;14508;50.924;11.600;2023-08-06T01:20:11;16.40;99.90
26954;DHT22;14508;50.924;11.600;2023-08-06T01:22:40;16.30;99.90
26954;DHT22;14508;50.924;11.600;2023-08-06T01:25:08;16.30;99.90
26954;DHT22;14508;50.924;11.600;2023-08-06T01:27:42;16.30;99.90
26954;DHT22;14508;50.924;11.600;2023-08-06T01:30:13;16.20;99.90
26954;DHT22;14508;50.924;11.600;2023-08-06T01:32:46;16.20;99.90
26954;DHT22;14508;50.924;11.600;2023-08-06T01:35:15;16.20;99.90
26954;DHT22;14508;50.924;11.600;2023-08-06T01:37:46;16.20;99.90
26954;DHT22;14508;50.924;11.600;2023-08-06T01:40:14;16.20;99.90
26954;DHT22;14508;50.924;11.600;2023-08-06T01:42:42;16.10;99.90
26954;DHT22;14508;50.924;11.600;2023-08-06T01:45:10;16.10;99.90
26954;DHT22;14508;50.924;11.600;2023-08-06T01:47:38;16.10;99.90
26954;DHT22;14508;50.924;11.600;2023-08-06T01:50:07;16.00;99.90
26954;DHT22;14508;50.924;11.600;2023-08-06T01:52:35;16.10;99.90
26954;DHT22;14508;50.924;11.600;2023-08-06T01:55:04;16.00;99.90
26954;DHT22;14508;50.924;11.600;2023-08-06T01:57:32;16.00;99.90
26954;DHT22;14508;50.924;11.600;2023-08-06T02:00:00;16.00;99.90
26954;DHT22;14508;50.924;11.600;2023-08-06T02:02:38;16.00;99.90
26954;DHT22;14508;50.924;11.600;2023-08-06T02:05:07;15.90;99.90
26954;DHT22;14508;50.924;11.600;2023-08-06T02:07:35;15.90;99.90
26954;DHT22;14508;50.924;11.600;2023-08-06T02:10:07;15.90;99.90
26954;DHT22;14508;50.924;11.600;2023-08-06T02:12:35;15.90;99.90
26954;DHT22;14508;50.924;11.600;2023-08-06T02:15:04;15.90;99.90
26954;DHT22;14508;50.924;11.600;2023-08-06T02:17:32;15.80;99.90
26954;DHT22;14508;50.924;11.600;2023-08-06T02:20:00;15.80;99.90
26954;DHT22;14508;50.924;11.600;2023-08-06T02:22:28;15.80;99.90
26954;DHT22;14508;50.924;11.600;2023-08-06T02:24:56;15.70;99.90
26954;DHT22;14508;50.924;11.600;2023-08-06T02:27:25;15.70;99.90
26954;DHT22;14508;50.924;11.600;2023-08-06T02:29:53;15.60;99.90
26954;DHT22;14508;50.924;11.600;2023-08-06T02:32:21;15.70;99.90
26954;DHT22;14508;50.924;11.600;2023-08-06T02:34:49;15.70;99.90
26954;DHT22;14508;50.924;11.600;2023-08-06T02:37:17;15.60;99.90
26954;DHT22;14508;50.924;11.600;2023-08-06T02:39:45;15.60;99.90
26954;DHT22;14508;50.924;11.600;2023-08-06T02:42:13;15.60;99.90
26954;DHT22;14508;50.924;11.600;2023-08-06T02:44:42;15.60;99.90
26954;DHT22;14508;50.924;11.600;2023-08-06T02:47:10;15.60;99.90
26954;DHT22;14508;50.924;11.600;2023-08-06T02:49:38;15.60;99.90
26954;DHT22;14508;50.924;11.600;2023-08-06T02:52:07;15.60;99.90
26954;DHT22;14508;50.924;11.600;2023-08-06T02:54:35;15.60;99.90
26954;DHT22;14508;50.924;11.600;2023-08-06T02:57:03;15.60;99.90
26954;DHT22;14508;50.924;11.600;2023-08-06T02:59:33;15.60;99.90
26954;DHT22;14508;50.924;11.600;2023-08-06T03:02:13;15.60;99.90
26954;DHT22;14508;50.924;11.600;2023-08-06T03:04:56;15.60;99.90
26954;DHT22;14508;50.924;11.600;2023-08-06T03:07:28;15.60;99.90
26954;DHT22;14508;50.924;11.600;2023-08-06T03:10:03;15.50;99.90
26954;DHT22;14508;50.924;11.600;2023-08-06T03:12:31;15.50;99.90
26954;DHT22;14508;50.924;11.600;2023-08-06T03:15:02;15.40;99.90
26954;DHT22;14508;50.924;11.600;2023-08-06T03:17:31;15.50;99.90
26954;DHT22;14508;50.924;11.600;2023-08-06T03:20:00;15.50;99.90
26954;DHT22;14508;50.924;11.600;2023-08-06T03:22:28;15.40;99.90
26954;DHT22;14508;50.924;11.600;2023-08-06T03:24:56;15.50;99.90
26954;DHT22;14508;50.924;11.600;2023-08-06T03:27:25;15.40;99.90
26954;DHT22;14508;50.924;11.600;2023-08-06T03:29:53;15.50;99.90
26954;DHT22;14508;50.924;11.600;2023-08-06T03:32:23;15.40;99.90
26954;DHT22;14508;50.924;11.600;2023-08-06T03:34:54;15.40;99.90
26954;DHT22;14508;50.924;11.600;2023-08-06T03:37:25;15.30;99.90
26954;DHT22;14508;50.924;11.600;2023-08-06T03:39:53;15.30;99.90
26954;DHT22;14508;50.924;11.600;2023-08-06T03:42:21;15.30;99.90
26954;DHT22;14508;50.924;11.600;2023-08-06T03:44:49;15.30;99.90
26954;DHT22;14508;50.924;11.600;2023-08-06T03:47:16;15.30;99.90
26954;DHT22;14508;50.924;11.600;2023-08-06T03:49:48;15.30;99.90
26954;DHT22;14508;50.924;11.600;2023-08-06T03:52:18;15.20;99.90
26954;DHT22;14508;50.924;11.600;2023-08-06T03:54:47;15.20;99.90
26954;DHT22;14508;50.924;11.600;2023-08-06T03:57:15;15.20;99.90
26954;DHT22;14508;50.924;11.600;2023-08-06T03:59:42;15.30;99.90
26954;DHT22;14508;50.924;11.600;2023-08-06T04:02:21;15.20;99.90
26954;DHT22;14508;50.924;11.600;2023-08-06T04:04:49;15.20;99.90
26954;DHT22;14508;50.924;11.600;2023-08-06T04:07:22;15.20;99.90
26954;DHT22;14508;50.924;11.600;2023-08-06T04:09:54;15.20;99.90
26954;DHT22;14508;50.924;11.600;2023-08-06T04:12:22;15.20;99.90
26954;DHT22;14508;50.924;11.600;2023-08-06T04:14:51;15.20;99.90
26954;DHT22;14508;50.924;11.600;2023-08-06T04:17:20;15.30;99.90
26954;DHT22;14508;50.924;11.600;2023-08-06T04:19:49;15.30;99.90
26954;DHT22;14508;50.924;11.600;2023-08-06T04:22:18;15.30;99.90
26954;DHT22;14508;50.924;11.600;2023-08-06T04:24:47;15.20;99.90
26954;DHT22;14508;50.924;11.600;2023-08-06T04:27:16;15.30;99.90
26954;DHT22;14508;50.924;11.600;2023-08-06T04:29:45;15.20;99.90
26954;DHT22;14508;50.924;11.600;2023-08-06T04:32:13;15.30;99.90
26954;DHT22;14508;50.924;11.600;2023-08-06T04:34:46;15.30;99.90
26954;DHT22;14508;50.924;11.600;2023-08-06T04:37:15;15.30;99.90
26954;DHT22;14508;50.924;11.600;2023-08-06T04:39:43;15.30;99.90
26954;DHT22;14508;50.924;11.600;2023-08-06T04:42:12;15.30;99.90
26954;DHT22;14508;50.924;11.600;2023-08-06T04:44:41;15.20;99.90
26954;DHT22;14508;50.924;11.600;2023-08-06T04:47:09;15.20;99.90
26954;DHT22;14508;50.924;11.600;2023-08-06T04:49:37;15.30;99.90
26954;DHT22;14508;50.924;11.600;2023-08-06T04:52:05;15.30;99.90
26954;DHT22;14508;50.924;11.600;2023-08-06T04:54:33;15.30;99.90
26954;DHT22;14508;50.924;11.600;2023-08-06T04:57:02;15.30;99.90
26954;DHT22;14508;50.924;11.600;2023-08-06T04:59:31;15.30;99.90
26954;DHT22;14508;50.924;11.600;2023-08-06T05:01:59;15.30;99.90
26954;DHT22;14508;50.924;11.600;2023-08-06T05:04:27;15.30;99.90
26954;DHT22;14508;50.924;11.600;2023-08-06T05:06:55;15.20;99.90
26954;DHT22;14508;50.924;11.600;2023-08-06T05:09:23;15.30;99.90
26954;DHT22;14508;50.924;11.600;2023-08-06T05:11:51;15.30;99.90
26954;DHT22;14508;50.924;11.600;2023-08-06T05:14:19;15.30;99.90
26954;DHT22;14508;50.924;11.600;2023-08-06T05:16:49;15.30;99.90
26954;DHT22;14508;50.924;11.600;2023-08-06T05:19:17;15.30;99.90
26954;DHT22;14508;50.924;11.600;2023-08-06T05:21:44;15.40;99.90
26954;DHT22;14508;50.924;11.600;2023-08-06T05:24:12;15.40;99.90
26954;DHT22;14508;50.924;11.600;2023-08-06T05:26:40;15.50;99.90
26954;DHT22;14508;50.924;11.600;2023-08-06T05:29:08;15.50;99.90
26954;DHT22;14508;50.924;11.600;2023-08-06T05:31:36;15.60;99.90
26954;DHT22;14508;50.924;11.600;2023-08-06T05:34:06;15.60;99.90
26954;DHT22;14508;50.924;11.600;2023-08-06T05:36:34;15.60;99.90
26954;DHT22;14508;50.924;11.600;2023-08-06T05:39:02;15.70;99.90
26954;DHT22;14508;50.924;11.600;2023-08-06T05:41:30;15.70;99.90
26954;DHT22;14508;50.924;11.600;2023-08-06T05:43:58;15.70;99.90
26954;DHT22;14508;50.924;11.600;2023-08-06T05:46:30;15.70;99.90
26954;DHT22;14508;50.924;11.600;2023-08-06T05:48:58;15.70;99.90
26954;DHT22;14508;50.924;11.600;2023-08-06T05:51:27;15.80;99.90
26954;DHT22;14508;50.924;11.600;2023-08-06T05:53:55;15.70;99.90
26954;DHT22;14508;50.924;11.600;2023-08-06T05:56:23;15.70;99.90
26954;DHT22;14508;50.924;11.600;2023-08-06T05:58:51;15.80;99.90
26954;DHT22;14508;50.924;11.600;2023-08-06T06:01:19;15.80;99.90
26954;DHT22;14508;50.924;11.600;2023-08-06T06:03:48;15.80;99.90
26954;DHT22;14508;50.924;11.600;2023-08-06T06:06:16;15.90;99.90
26954;DHT22;14508;50.924;11.600;2023-08-06T06:08:46;16.00;99.90
26954;DHT22;14508;50.924;11.600;2023-08-06T06:11:14;16.00;99.90
26954;DHT22;14508;50.924;11.600;2023-08-06T06:13:42;16.10;99.90
26954;DHT22;14508;50.924;11.600;2023-08-06T06:16:10;16.20;99.90
26954;DHT22;14508;50.924;11.600;2023-08-06T06:18:38;16.20;99.90
26954;DHT22;14508;50.924;11.600;2023-08-06T06:21:06;16.20;99.90
26954;DHT22;14508;50.924;11.600;2023-08-06T06:23:34;16.30;99.90
26954;DHT22;14508;50.924;11.600;2023-08-06T06:26:03;16.30;99.90
26954;DHT22;14508;50.924;11.600;2023-08-06T06:28:31;16.40;99.90
26954;DHT22;14508;50.924;11.600;2023-08-06T06:31:00;16.40;99.90
26954;DHT22;14508;50.924;11.600;2023-08-06T06:33:28;16.50;99.90
26954;DHT22;14508;50.924;11.600;2023-08-06T06:35:56;16.60;99.90
26954;DHT22;14508;50.924;11.600;2023-08-06T06:38:24;16.60;99.90
26954;DHT22;14508;50.924;11.600;2023-08-06T06:40:55;16.70;99.90
26954;DHT22;14508;50.924;11.600;2023-08-06T06:43:26;16.70;99.90
26954;DHT22;14508;50.924;11.600;2023-08-06T06:45:56;16.70;99.90
26954;DHT22;14508;50.924;11.600;2023-08-06T06:48:26;16.80;99.90
26954;DHT22;14508;50.924;11.600;2023-08-06T06:50:55;16.90;99.90
26954;DHT22;14508;50.924;11.600;2023-08-06T06:53:23;17.00;99.90
26954;DHT22;14508;50.924;11.600;2023-08-06T06:55:54;17.00;99.90
26954;DHT22;14508;50.924;11.600;2023-08-06T06:58:22;17.10;99.90
26954;DHT22;14508;50.924;11.600;2023-08-06T07:00:52;17.20;99.90
26954;DHT22;14508;50.924;11.600;2023-08-06T07:03:20;17.30;99.90
26954;DHT22;14508;50.924;11.600;2023-08-06T07:05:48;17.40;99.90
26954;DHT22;14508;50.924;11.600;2023-08-06T07:08:17;17.40;99.90
26954;DHT22;14508;50.924;11.600;2023-08-06T07:10:45;17.60;99.90
26954;DHT22;14508;50.924;11.600;2023-08-06T07:13:13;17.70;99.90
26954;DHT22;14508;50.924;11.600;2023-08-06T07:15:41;17.80;99.90
26954;DHT22;14508;50.924;11.600;2023-08-06T07:18:10;17.90;99.90
26954;DHT22;14508;50.924;11.600;2023-08-06T07:20:38;18.00;99.90
26954;DHT22;14508;50.924;11.600;2023-08-06T07:23:06;18.10;99.90
26954;DHT22;14508;50.924;11.600;2023-08-06T07:25:34;18.20;99.90
26954;DHT22;14508;50.924;11.600;2023-08-06T07:28:02;18.20;99.90
26954;DHT22;14508;50.924;11.600;2023-08-06T07:30:30;18.30;99.90
26954;DHT22;14508;50.924;11.600;2023-08-06T07:32:59;18.30;99.90
26954;DHT22;14508;50.924;11.600;2023-08-06T07:35:30;18.40;99.90
26954;DHT22;14508;50.924;11.600;2023-08-06T07:37:58;18.50;99.90
26954;DHT22;14508;50.924;11.600;2023-08-06T07:40:26;18.50;99.90
26954;DHT22;14508;50.924;11.600;2023-08-06T07:42:54;18.50;99.90
26954;DHT22;14508;50.924;11.600;2023-08-06T07:45:22;18.60;99.90
26954;DHT22;14508;50.924;11.600;2023-08-06T07:47:50;18.70;99.90
26954;DHT22;14508;50.924;11.600;2023-08-06T07:50:18;18.70;99.90
26954;DHT22;14508;50.924;11.600;2023-08-06T07:52:47;18.80;99.90
26954;DHT22;14508;50.924;11.600;2023-08-06T07:55:15;18.90;99.90
26954;DHT22;14508;50.924;11.600;2023-08-06T07:57:43;19.00;99.90
26954;DHT22;14508;50.924;11.600;2023-08-06T08:00:11;19.00;99.90
26954;DHT22;14508;50.924;11.600;2023-08-06T08:02:40;19.10;99.90
26954;DHT22;14508;50.924;11.600;2023-08-06T08:05:08;19.20;99.90
26954;DHT22;14508;50.924;11.600;2023-08-06T08:07:36;19.20;99.90
26954;DHT22;14508;50.924;11.600;2023-08-06T08:10:07;19.30;99.90
26954;DHT22;14508;50.924;11.600;2023-08-06T08:12:35;19.40;99.90
26954;DHT22;14508;50.924;11.600;2023-08-06T08:15:04;19.50;99.90
26954;DHT22;14508;50.924;11.600;2023-08-06T08:17:32;19.60;99.90
26954;DHT22;14508;50.924;11.600;2023-08-06T08:20:01;19.60;99.90
26954;DHT22;14508;50.924;11.600;2023-08-06T08:22:29;19.80;99.90
26954;DHT22;14508;50.924;11.600;2023-08-06T08:24:57;19.80;99.90
26954;DHT22;14508;50.924;11.600;2023-08-06T08:27:26;19.80;99.90
26954;DHT22;14508;50.924;11.600;2023-08-06T08:29:54;19.90;99.90
26954;DHT22;14508;50.924;11.600;2023-08-06T08:32:22;19.90;99.90
26954;DHT22;14508;50.924;11.600;2023-08-06T08:34:51;20.00;99.90
26954;DHT22;14508;50.924;11.600;2023-08-06T08:37:19;20.00;99.90
26954;DHT22;14508;50.924;11.600;2023-08-06T08:39:47;20.10;99.90
26954;DHT22;14508;50.924;11.600;2023-08-06T08:42:15;20.10;99.90
26954;DHT22;14508;50.924;11.600;2023-08-06T08:44:45;20.20;99.90
26954;DHT22;14508;50.924;11.600;2023-08-06T08:47:13;20.30;99.90
26954;DHT22;14508;50.924;11.600;2023-08-06T08:49:43;20.30;99.90
26954;DHT22;14508;50.924;11.600;2023-08-06T08:52:14;20.30;99.90
26954;DHT22;14508;50.924;11.600;2023-08-06T08:54:43;20.40;99.90
26954;DHT22;14508;50.924;11.600;2023-08-06T08:57:12;20.50;99.90
26954;DHT22;14508;50.924;11.600;2023-08-06T08:59:40;20.60;99.90
26954;DHT22;14508;50.924;11.600;2023-08-06T09:02:11;20.60;99.90
26954;DHT22;14508;50.924;11.600;2023-08-06T09:04:41;20.70;99.90
26954;DHT22;14508;50.924;11.600;2023-08-06T09:07:11;20.80;99.90
26954;DHT22;14508;50.924;11.600;2023-08-06T09:09:43;20.90;99.90
26954;DHT22;14508;50.924;11.600;2023-08-06T09:12:14;21.00;99.90
26954;DHT22;14508;50.924;11.600;2023-08-06T09:14:42;21.00;99.90
26954;DHT22;14508;50.924;11.600;2023-08-06T09:17:11;21.00;99.90
26954;DHT22;14508;50.924;11.600;2023-08-06T09:19:42;21.00;99.90
26954;DHT22;14508;50.924;11.600;2023-08-06T09:22:12;21.00;99.90
26954;DHT22;14508;50.924;11.600;2023-08-06T09:24:41;20.90;99.90
26954;DHT22;14508;50.924;11.600;2023-08-06T09:27:11;20.90;99.90
26954;DHT22;14508;50.924;11.600;2023-08-06T09:29:41;20.90;99.90
26954;DHT22;14508;50.924;11.600;2023-08-06T09:32:09;21.00;99.90
26954;DHT22;14508;50.924;11.600;2023-08-06T09:34:41;21.00;99.90
26954;DHT22;14508;50.924;11.600;2023-08-06T09:37:10;21.10;99.90
26954;DHT22;14508;50.924;11.600;2023-08-06T09:39:39;21.10;99.90
26954;DHT22;14508;50.924;11.600;2023-08-06T09:42:07;21.10;99.90
26954;DHT22;14508;50.924;11.600;2023-08-06T09:44:35;21.20;99.90
26954;DHT22;14508;50.924;11.600;2023-08-06T09:47:06;21.20;99.90
26954;DHT22;14508;50.924;11.600;2023-08-06T09:49:42;21.30;99.90
26954;DHT22;14508;50.924;11.600;2023-08-06T09:52:13;21.40;99.90
26954;DHT22;14508;50.924;11.600;2023-08-06T09:54:43;21.40;99.90
26954;DHT22;14508;50.924;11.600;2023-08-06T09:57:12;21.40;99.90
26954;DHT22;14508;50.924;11.600;2023-08-06T09:59:42;21.60;99.90
26954;DHT22;14508;50.924;11.600;2023-08-06T10:02:13;21.80;99.90
26954;DHT22;14508;50.924;11.600;2023-08-06T10:04:44;22.00;99.00
26954;DHT22;14508;50.924;11.600;2023-08-06T10:07:21;22.00;98.00
26954;DHT22;14508;50.924;11.600;2023-08-06T10:09:50;22.10;96.80
26954;DHT22;14508;50.924;11.600;2023-08-06T10:12:19;22.00;96.20
26954;DHT22;14508;50.924;11.600;2023-08-06T10:14:47;21.90;95.30
26954;DHT22;14508;50.924;11.600;2023-08-06T10:17:17;21.70;95.10
26954;DHT22;14508;50.924;11.600;2023-08-06T10:19:47;21.50;95.60
26954;DHT22;14508;50.924;11.600;2023-08-06T10:22:16;21.40;96.60
26954;DHT22;14508;50.924;11.600;2023-08-06T10:24:49;21.30;97.00
26954;DHT22;14508;50.924;11.600;2023-08-06T10:27:28;21.30;97.00
26954;DHT22;14508;50.924;11.600;2023-08-06T10:30:23;21.20;96.80
26954;DHT22;14508;50.924;11.600;2023-08-06T10:32:52;21.10;97.10
26954;DHT22;14508;50.924;11.600;2023-08-06T10:35:34;21.20;97.50
26954;DHT22;14508;50.924;11.600;2023-08-06T10:38:08;21.20;97.00
26954;DHT22;14508;50.924;11.600;2023-08-06T10:40:39;21.30;96.90
26954;DHT22;14508;50.924;11.600;2023-08-06T10:43:07;21.30;97.10
26954;DHT22;14508;50.924;11.600;2023-08-06T10:45:37;21.30;96.90
26954;DHT22;14508;50.924;11.600;2023-08-06T10:48:06;21.20;97.10
26954;DHT22;14508;50.924;11.600;2023-08-06T10:50:36;21.20;97.10
26954;DHT22;14508;50.924;11.600;2023-08-06T10:53:05;21.10;98.10
26954;DHT22;14508;50.924;11.600;2023-08-06T10:55:34;21.10;99.40
26954;DHT22;14508;50.924;11.600;2023-08-06T10:58:05;21.10;99.90
26954;DHT22;14508;50.924;11.600;2023-08-06T11:00:33;21.10;99.90
26954;DHT22;14508;50.924;11.600;2023-08-06T11:03:01;21.20;99.90
26954;DHT22;14508;50.924;11.600;2023-08-06T11:05:31;21.40;99.90
26954;DHT22;14508;50.924;11.600;2023-08-06T11:08:00;21.50;99.90
26954;DHT22;14508;50.924;11.600;2023-08-06T11:10:28;21.50;99.90
26954;DHT22;14508;50.924;11.600;2023-08-06T11:13:00;21.50;99.90
26954;DHT22;14508;50.924;11.600;2023-08-06T11:15:30;21.50;99.90
26954;DHT22;14508;50.924;11.600;2023-08-06T11:17:58;21.50;99.90
26954;DHT22;14508;50.924;11.600;2023-08-06T11:20:26;21.50;99.90
26954;DHT22;14508;50.924;11.600;2023-08-06T11:22:54;21.50;99.90
26954;DHT22;14508;50.924;11.600;2023-08-06T11:25:23;21.50;99.90
26954;DHT22;14508;50.924;11.600;2023-08-06T11:27:51;21.50;99.90
26954;DHT22;14508;50.924;11.600;2023-08-06T11:30:19;21.60;99.90
26954;DHT22;14508;50.924;11.600;2023-08-06T11:32:48;21.80;99.90
26954;DHT22;14508;50.924;11.600;2023-08-06T11:35:16;22.00;99.90
26954;DHT22;14508;50.924;11.600;2023-08-06T11:37:44;22.20;99.70
26954;DHT22;14508;50.924;11.600;2023-08-06T11:40:14;22.40;97.90
26954;DHT22;14508;50.924;11.600;2023-08-06T11:42:46;22.40;96.90
26954;DHT22;14508;50.924;11.600;2023-08-06T11:45:14;22.50;96.10
26954;DHT22;14508;50.924;11.600;2023-08-06T11:47:50;22.40;96.10
26954;DHT22;14508;50.924;11.600;2023-08-06T11:50:22;22.40;95.50
26954;DHT22;14508;50.924;11.600;2023-08-06T11:52:53;22.40;93.90
26954;DHT22;14508;50.924;11.600;2023-08-06T11:55:23;22.40;93.20
26954;DHT22;14508;50.924;11.600;2023-08-06T11:57:53;22.30;92.50
26954;DHT22;14508;50.924;11.600;2023-08-06T12:00:23;22.30;92.40
26954;DHT22;14508;50.924;11.600;2023-08-06T12:02:52;22.20;92.30
26954;DHT22;14508;50.924;11.600;2023-08-06T12:05:22;22.20;93.00
26954;DHT22;14508;50.924;11.600;2023-08-06T12:07:52;22.20;92.30
26954;DHT22;14508;50.924;11.600;2023-08-06T12:10:21;22.20;91.80
26954;DHT22;14508;50.924;11.600;2023-08-06T12:12:49;22.20;91.10
26954;DHT22;14508;50.924;11.600;2023-08-06T12:15:19;22.20;90.00
26954;DHT22;14508;50.924;11.600;2023-08-06T12:17:47;22.20;88.40
26954;DHT22;14508;50.924;11.600;2023-08-06T12:20:15;22.20;89.00
26954;DHT22;14508;50.924;11.600;2023-08-06T12:22:43;22.40;89.30
26954;DHT22;14508;50.924;11.600;2023-08-06T12:25:12;22.70;88.20
26954;DHT22;14508;50.924;11.600;2023-08-06T12:27:42;22.80;89.60
26954;DHT22;14508;50.924;11.600;2023-08-06T12:30:11;22.80;90.90
26954;DHT22;14508;50.924;11.600;2023-08-06T12:32:41;22.60;91.80
26954;DHT22;14508;50.924;11.600;2023-08-06T12:35:09;22.40;92.30
26954;DHT22;14508;50.924;11.600;2023-08-06T12:37:37;22.20;93.00
26954;DHT22;14508;50.924;11.600;2023-08-06T12:40:07;21.90;94.90
26954;DHT22;14508;50.924;11.600;2023-08-06T12:42:55;21.70;99.30
26954;DHT22;14508;50.924;11.600;2023-08-06T12:45:23;21.30;99.90
26954;DHT22;14508;50.924;11.600;2023-08-06T12:47:52;20.90;99.90
26954;DHT22;14508;50.924;11.600;2023-08-06T12:50:20;20.50;99.90
26954;DHT22;14508;50.924;11.600;2023-08-06T12:52:48;20.30;99.90
26954;DHT22;14508;50.924;11.600;2023-08-06T12:55:16;20.10;99.90
26954;DHT22;14508;50.924;11.600;2023-08-06T12:57:44;20.10;99.90
26954;DHT22;14508;50.924;11.600;2023-08-06T13:00:24;20.20;99.90
26954;DHT22;14508;50.924;11.600;2023-08-06T13:02:53;20.30;99.90
26954;DHT22;14508;50.924;11.600;2023-08-06T13:05:21;20.50;99.90
26954;DHT22;14508;50.924;11.600;2023-08-06T13:07:49;20.80;99.90
26954;DHT22;14508;50.924;11.600;2023-08-06T13:10:18;21.10;99.90
26954;DHT22;14508;50.924;11.600;2023-08-06T13:12:46;21.40;99.90
26954;DHT22;14508;50.924;11.600;2023-08-06T13:15:14;21.70;99.90
26954;DHT22;14508;50.924;11.600;2023-08-06T13:17:43;21.90;99.90
26954;DHT22;14508;50.924;11.600;2023-08-06T13:20:14;22.00;99.90
26954;DHT22;14508;50.924;11.600;2023-08-06T13:22:45;22.10;99.90
26954;DHT22;14508;50.924;11.600;2023-08-06T13:25:16;22.10;99.90
26954;DHT22;14508;50.924;11.600;2023-08-06T13:27:45;22.10;99.90
26954;DHT22;14508;50.924;11.600;2023-08-06T13:30:15;22.20;99.90
26954;DHT22;14508;50.924;11.600;2023-08-06T13:32:43;22.30;99.90
26954;DHT22;14508;50.924;11.600;2023-08-06T13:35:11;22.40;99.90
26954;DHT22;14508;50.924;11.600;2023-08-06T13:37:40;22.50;99.90
26954;DHT22;14508;50.924;11.600;2023-08-06T13:40:09;22.50;99.90
26954;DHT22;14508;50.924;11.600;2023-08-06T13:42:37;22.40;99.90
26954;DHT22;14508;50.924;11.600;2023-08-06T13:45:05;22.30;99.90
26954;DHT22;14508;50.924;11.600;2023-08-06T13:47:33;22.20;99.90
26954;DHT22;14508;50.924;11.600;2023-08-06T13:50:02;22.00;99.90
26954;DHT22;14508;50.924;11.600;2023-08-06T13:52:31;21.80;99.90
26954;DHT22;14508;50.924;11.600;2023-08-06T13:55:00;21.60;99.90
26954;DHT22;14508;50.924;11.600;2023-08-06T13:57:30;21.50;99.90
26954;DHT22;14508;50.924;11.600;2023-08-06T13:59:58;21.10;99.90
26954;DHT22;14508;50.924;11.600;2023-08-06T14:02:26;20.80;99.90
26954;DHT22;14508;50.924;11.600;2023-08-06T14:04:54;20.60;99.90
26954;DHT22;14508;50.924;11.600;2023-08-06T14:07:22;20.40;99.90
26954;DHT22;14508;50.924;11.600;2023-08-06T14:09:50;20.30;99.90
26954;DHT22;14508;50.924;11.600;2023-08-06T14:12:19;20.20;99.90
26954;DHT22;14508;50.924;11.600;2023-08-06T14:14:47;20.20;99.90
26954;DHT22;14508;50.924;11.600;2023-08-06T14:17:15;20.10;99.90
26954;DHT22;14508;50.924;11.600;2023-08-06T14:19:43;20.00;99.90
26954;DHT22;14508;50.924;11.600;2023-08-06T14:22:11;19.90;99.90
26954;DHT22;14508;50.924;11.600;2023-08-06T14:24:39;19.80;99.90
26954;DHT22;14508;50.924;11.600;2023-08-06T14:27:08;19.80;99.90
26954;DHT22;14508;50.924;11.600;2023-08-06T14:29:37;19.70;99.90
26954;DHT22;14508;50.924;11.600;2023-08-06T14:32:06;19.60;99.90
26954;DHT22;14508;50.924;11.600;2023-08-06T14:34:34;19.50;99.90
26954;DHT22;14508;50.924;11.600;2023-08-06T14:37:02;19.50;99.90
26954;DHT22;14508;50.924;11.600;2023-08-06T14:39:30;19.40;99.90
26954;DHT22;14508;50.924;11.600;2023-08-06T14:41:58;19.30;99.90
26954;DHT22;14508;50.924;11.600;2023-08-06T14:44:26;19.20;99.90
26954;DHT22;14508;50.924;11.600;2023-08-06T14:46:55;19.20;99.90
26954;DHT22;14508;50.924;11.600;2023-08-06T14:49:24;19.20;99.90
26954;DHT22;14508;50.924;11.600;2023-08-06T14:51:52;19.20;99.90
26954;DHT22;14508;50.924;11.600;2023-08-06T14:54:20;19.20;99.90
26954;DHT22;14508;50.924;11.600;2023-08-06T14:56:48;19.30;99.90
26954;DHT22;14508;50.924;11.600;2023-08-06T14:59:16;19.40;99.90
26954;DHT22;14508;50.924;11.600;2023-08-06T15:01:44;19.50;99.90
26954;DHT22;14508;50.924;11.600;2023-08-06T15:04:13;19.70;99.90
26954;DHT22;14508;50.924;11.600;2023-08-06T15:06:41;20.00;99.90
26954;DHT22;14508;50.924;11.600;2023-08-06T15:09:09;20.20;99.90
26954;DHT22;14508;50.924;11.600;2023-08-06T15:11:37;20.40;99.90
26954;DHT22;14508;50.924;11.600;2023-08-06T15:14:05;20.60;99.90
26954;DHT22;14508;50.924;11.600;2023-08-06T15:16:34;20.80;99.90
26954;DHT22;14508;50.924;11.600;2023-08-06T15:19:02;21.00;99.90
26954;DHT22;14508;50.924;11.600;2023-08-06T15:21:31;21.20;99.90
26954;DHT22;14508;50.924;11.600;2023-08-06T15:23:59;21.60;99.90
26954;DHT22;14508;50.924;11.600;2023-08-06T15:26:27;21.90;99.90